sensor_id;sensor_type;location;lat;lon;timestamp;temperature;humidity
28023;DHT22;67403;50.104;8.758;2023-03-04T00:02:20;0.70;99.90
28023;DHT22;67403;50.104;8.758;2023-03-04T00:04:46;0.80;99.90
28023;DHT22;67403;50.104;8.758;2023-03-04T00:07:13;0.80;99.90
28023;DHT22;67403;50.104;8.758;2023-03-04T00:09:43;0.80;99.90
28023;DHT22;67403;50.104;8.758;2023-03-04T00:12:11;0.80;99.90
28023;DHT22;67403;50.104;8.758;2023-03-04T00:14:38;0.80;99.90
28023;DHT22;67403;50.104;8.758;2023-03-04T00:17:05;0.70;99.90
28023;DHT22;67403;50.104;8.758;2023-03-04T00:19:33;0.70;99.90
28023;DHT22;67403;50.104;8.758;2023-03-04T00:22:00;0.70;99.90
28023;DHT22;67403;50.104;8.758;2023-03-04T00:24:28;0.70;99.90
28023;DHT22;67403;50.104;8.758;2023-03-04T00:26:55;0.70;99.90
28023;DHT22;67403;50.104;8.758;2023-03-04T00:29:22;0.80;99.90
28023;DHT22;67403;50.104;8.758;2023-03-04T00:31:49;0.70;99.90
28023;DHT22;67403;50.104;8.758;2023-03-04T00:34:16;0.70;99.90
28023;DHT22;67403;50.104;8.758;2023-03-04T00:36:44;0.80;99.90
28023;DHT22;67403;50.104;8.758;2023-03-04T00:39:12;0.90;99.90
28023;DHT22;67403;50.104;8.758;2023-03-04T00:41:39;0.90;99.90
28023;DHT22;67403;50.104;8.758;2023-03-04T00:44:06;0.80;99.90
28023;DHT22;67403;50.104;8.758;2023-03-04T00:46:33;0.80;99.90
28023;DHT22;67403;50.104;8.758;2023-03-04T00:48:59;0.70;99.90
28023;DHT22;67403;50.104;8.758;2023-03-04T00:51:26;0.70;99.90
28023;DHT22;67403;50.104;8.758;2023-03-04T00:53:54;0.70;99.90
28023;DHT22;67403;50.104;8.758;2023-03-04T00:56:21;0.70;99.90
28023;DHT22;67403;50.104;8.758;2023-03-04T00:58:48;0.70;99.90
28023;DHT22;67403;50.104;8.758;2023-03-04T01:01:15;0.60;99.90
28023;DHT22;67403;50.104;8.758;2023-03-04T01:03:42;0.70;99.90
28023;DHT22;67403;50.104;8.758;2023-03-04T01:06:09;0.80;99.90
28023;DHT22;67403;50.104;8.758;2023-03-04T01:08:37;0.90;99.90
28023;DHT22;67403;50.104;8.758;2023-03-04T01:11:05;0.90;99.90
28023;DHT22;67403;50.104;8.758;2023-03-04T01:13:32;1.00;99.90
28023;DHT22;67403;50.104;8.758;2023-03-04T01:15:59;1.00;99.90
28023;DHT22;67403;50.104;8.758;2023-03-04T01:18:28;1.10;99.90
28023;DHT22;67403;50.104;8.758;2023-03-04T01:20:55;1.10;99.90
28023;DHT22;67403;50.104;8.758;2023-03-04T01:23:23;1.10;99.90
28023;DHT22;67403;50.104;8.758;2023-03-04T01:25:49;1.10;99.90
28023;DHT22;67403;50.104;8.758;2023-03-04T01:28:18;1.20;99.90
28023;DHT22;67403;50.104;8.758;2023-03-04T01:30:45;1.20;99.90
28023;DHT22;67403;50.104;8.758;2023-03-04T01:33:12;1.10;99.90
28023;DHT22;67403;50.104;8.758;2023-03-04T01:35:39;1.20;99.90
28023;DHT22;67403;50.104;8.758;2023-03-04T01:38:06;1.20;99.90
28023;DHT22;67403;50.104;8.758;2023-03-04T01:40:32;1.20;99.90
28023;DHT22;67403;50.104;8.758;2023-03-04T01:42:59;1.20;99.90
28023;DHT22;67403;50.104;8.758;2023-03-04T01:45:28;1.20;99.90
28023;DHT22;67403;50.104;8.758;2023-03-04T01:47:55;1.20;99.90
28023;DHT22;67403;50.104;8.758;2023-03-04T01:50:27;1.20;99.90
28023;DHT22;67403;50.104;8.758;2023-03-04T01:52:55;1.20;99.90
28023;DHT22;67403;50.104;8.758;2023-03-04T01:55:23;1.20;99.90
28023;DHT22;67403;50.104;8.758;2023-03-04T01:57:51;1.20;99.90
28023;DHT22;67403;50.104;8.758;2023-03-04T02:00:22;1.20;99.90
28023;DHT22;67403;50.104;8.758;2023-03-04T02:02:53;1.20;99.90
28023;DHT22;67403;50.104;8.758;2023-03-04T02:05:21;1.20;99.90
28023;DHT22;67403;50.104;8.758;2023-03-04T02:07:48;1.20;99.90
28023;DHT22;67403;50.104;8.758;2023-03-04T02:10:16;1.20;99.90
28023;DHT22;67403;50.104;8.758;2023-03-04T02:12:44;1.20;99.90
28023;DHT22;67403;50.104;8.758;2023-03-04T02:15:11;1.30;99.90
28023;DHT22;67403;50.104;8.758;2023-03-04T02:17:38;1.30;99.90
28023;DHT22;67403;50.104;8.758;2023-03-04T02:20:14;1.30;99.90
28023;DHT22;67403;50.104;8.758;2023-03-04T02:22:47;1.30;99.90
28023;DHT22;67403;50.104;8.758;2023-03-04T02:25:21;1.30;99.90
28023;DHT22;67403;50.104;8.758;2023-03-04T02:27:51;1.30;99.90
28023;DHT22;67403;50.104;8.758;2023-03-04T02:30:22;1.30;99.90
28023;DHT22;67403;50.104;8.758;2023-03-04T02:32:51;1.30;99.90
28023;DHT22;67403;50.104;8.758;2023-03-04T02:35:19;1.30;99.90
28023;DHT22;67403;50.104;8.758;2023-03-04T02:37:46;1.30;99.90
28023;DHT22;67403;50.104;8.758;2023-03-04T02:40:15;1.40;99.90
28023;DHT22;67403;50.104;8.758;2023-03-04T02:42:45;1.40;99.90
28023;DHT22;67403;50.104;8.758;2023-03-04T02:45:30;1.40;99.90
28023;DHT22;67403;50.104;8.758;2023-03-04T02:47:59;1.50;99.90
28023;DHT22;67403;50.104;8.758;2023-03-04T02:50:28;1.50;99.90
28023;DHT22;67403;50.104;8.758;2023-03-04T02:52:57;1.40;99.90
28023;DHT22;67403;50.104;8.758;2023-03-04T02:55:24;1.50;99.90
28023;DHT22;67403;50.104;8.758;2023-03-04T02:57:51;1.40;99.90
28023;DHT22;67403;50.104;8.758;2023-03-04T03:00:18;1.40;99.90
28023;DHT22;67403;50.104;8.758;2023-03-04T03:02:46;1.40;99.90
28023;DHT22;67403;50.104;8.758;2023-03-04T03:05:13;1.40;99.90
28023;DHT22;67403;50.104;8.758;2023-03-04T03:07:40;1.40;99.90
28023;DHT22;67403;50.104;8.758;2023-03-04T03:10:08;1.40;99.90
28023;DHT22;67403;50.104;8.758;2023-03-04T03:12:35;1.40;99.90
28023;DHT22;67403;50.104;8.758;2023-03-04T03:15:02;1.20;99.90
28023;DHT22;67403;50.104;8.758;2023-03-04T03:17:29;1.00;99.90
28023;DHT22;67403;50.104;8.758;2023-03-04T03:19:57;0.90;99.90
28023;DHT22;67403;50.104;8.758;2023-03-04T03:22:24;0.70;99.90
28023;DHT22;67403;50.104;8.758;2023-03-04T03:24:51;0.70;99.90
28023;DHT22;67403;50.104;8.758;2023-03-04T03:27:18;0.70;99.90
28023;DHT22;67403;50.104;8.758;2023-03-04T03:29:45;0.70;99.90
28023;DHT22;67403;50.104;8.758;2023-03-04T03:32:12;0.70;99.90
28023;DHT22;67403;50.104;8.758;2023-03-04T03:34:39;0.70;99.90
28023;DHT22;67403;50.104;8.758;2023-03-04T03:37:07;0.80;99.90
28023;DHT22;67403;50.104;8.758;2023-03-04T03:39:34;0.80;99.90
28023;DHT22;67403;50.104;8.758;2023-03-04T03:42:01;0.80;99.90
28023;DHT22;67403;50.104;8.758;2023-03-04T03:44:28;0.80;99.90
28023;DHT22;67403;50.104;8.758;2023-03-04T03:46:54;0.80;99.90
28023;DHT22;67403;50.104;8.758;2023-03-04T03:49:21;0.80;99.90
28023;DHT22;67403;50.104;8.758;2023-03-04T03:51:48;0.90;99.90
28023;DHT22;67403;50.104;8.758;2023-03-04T03:54:17;0.90;99.90
28023;DHT22;67403;50.104;8.758;2023-03-04T03:56:43;1.00;99.90
28023;DHT22;67403;50.104;8.758;2023-03-04T03:59:10;0.90;99.90
28023;DHT22;67403;50.104;8.758;2023-03-04T04:01:37;1.00;99.90
28023;DHT22;67403;50.104;8.758;2023-03-04T04:04:04;0.90;99.90
28023;DHT22;67403;50.104;8.758;2023-03-04T04:06:31;0.90;99.90
28023;DHT22;67403;50.104;8.758;2023-03-04T04:09:19;0.90;99.90
28023;DHT22;67403;50.104;8.758;2023-03-04T04:12:06;1.00;99.90
28023;DHT22;67403;50.104;8.758;2023-03-04T04:14:53;1.00;99.90
28023;DHT22;67403;50.104;8.758;2023-03-04T04:17:40;1.00;99.90
28023;DHT22;67403;50.104;8.758;2023-03-04T04:20:27;1.10;99.90
28023;DHT22;67403;50.104;8.758;2023-03-04T04:22:54;1.10;99.90
28023;DHT22;67403;50.104;8.758;2023-03-04T04:25:22;1.10;99.90
28023;DHT22;67403;50.104;8.758;2023-03-04T04:27:49;1.10;99.90
28023;DHT22;67403;50.104;8.758;2023-03-04T04:30:16;1.20;99.90
28023;DHT22;67403;50.104;8.758;2023-03-04T04:32:43;1.20;99.90
28023;DHT22;67403;50.104;8.758;2023-03-04T04:35:10;1.20;99.90
28023;DHT22;67403;50.104;8.758;2023-03-04T04:37:37;1.20;99.90
28023;DHT22;67403;50.104;8.758;2023-03-04T04:40:04;1.20;99.90
28023;DHT22;67403;50.104;8.758;2023-03-04T04:42:33;1.20;99.90
28023;DHT22;67403;50.104;8.758;2023-03-04T04:45:00;1.20;99.90
28023;DHT22;67403;50.104;8.758;2023-03-04T04:47:27;1.20;99.90
28023;DHT22;67403;50.104;8.758;2023-03-04T04:49:54;1.20;99.90
28023;DHT22;67403;50.104;8.758;2023-03-04T04:52:21;1.20;99.90
28023;DHT22;67403;50.104;8.758;2023-03-04T04:54:48;1.10;99.90
28023;DHT22;67403;50.104;8.758;2023-03-04T04:57:14;1.20;99.90
28023;DHT22;67403;50.104;8.758;2023-03-04T04:59:43;1.20;99.90
28023;DHT22;67403;50.104;8.758;2023-03-04T05:02:09;1.10;99.90
28023;DHT22;67403;50.104;8.758;2023-03-04T05:04:36;1.10;99.90
28023;DHT22;67403;50.104;8.758;2023-03-04T05:07:03;1.00;99.90
28023;DHT22;67403;50.104;8.758;2023-03-04T05:09:30;1.10;99.90
28023;DHT22;67403;50.104;8.758;2023-03-04T05:11:57;1.10;99.90
28023;DHT22;67403;50.104;8.758;2023-03-04T05:14:24;1.20;99.90
28023;DHT22;67403;50.104;8.758;2023-03-04T05:16:52;1.20;99.90
28023;DHT22;67403;50.104;8.758;2023-03-04T05:19:19;1.10;99.90
28023;DHT22;67403;50.104;8.758;2023-03-04T05:21:46;1.10;99.90
28023;DHT22;67403;50.104;8.758;2023-03-04T05:24:13;1.10;99.90
28023;DHT22;67403;50.104;8.758;2023-03-04T05:26:40;1.20;99.90
28023;DHT22;67403;50.104;8.758;2023-03-04T05:29:07;1.20;99.90
28023;DHT22;67403;50.104;8.758;2023-03-04T05:31:34;1.20;99.90
28023;DHT22;67403;50.104;8.758;2023-03-04T05:34:02;1.30;99.90
28023;DHT22;67403;50.104;8.758;2023-03-04T05:36:29;1.30;99.90
28023;DHT22;67403;50.104;8.758;2023-03-04T05:38:56;1.30;99.90
28023;DHT22;67403;50.104;8.758;2023-03-04T05:41:23;1.30;99.90
28023;DHT22;67403;50.104;8.758;2023-03-04T05:43:50;1.30;99.90
28023;DHT22;67403;50.104;8.758;2023-03-04T05:46:18;1.30;99.90
28023;DHT22;67403;50.104;8.758;2023-03-04T05:48:50;1.30;99.90
28023;DHT22;67403;50.104;8.758;2023-03-04T05:51:18;1.30;99.90
28023;DHT22;67403;50.104;8.758;2023-03-04T05:53:45;1.30;99.90
28023;DHT22;67403;50.104;8.758;2023-03-04T05:56:14;1.40;99.90
28023;DHT22;67403;50.104;8.758;2023-03-04T05:58:41;1.40;99.90
28023;DHT22;67403;50.104;8.758;2023-03-04T06:01:09;1.40;99.90
28023;DHT22;67403;50.104;8.758;2023-03-04T06:03:36;1.40;99.90
28023;DHT22;67403;50.104;8.758;2023-03-04T06:06:03;1.50;99.90
28023;DHT22;67403;50.104;8.758;2023-03-04T06:08:32;1.50;99.90
28023;DHT22;67403;50.104;8.758;2023-03-04T06:10:59;1.60;99.90
28023;DHT22;67403;50.104;8.758;2023-03-04T06:13:26;1.60;99.90
28023;DHT22;67403;50.104;8.758;2023-03-04T06:15:54;1.50;99.90
28023;DHT22;67403;50.104;8.758;2023-03-04T06:18:22;1.50;99.90
28023;DHT22;67403;50.104;8.758;2023-03-04T06:20:50;1.50;99.90
28023;DHT22;67403;50.104;8.758;2023-03-04T06:23:16;1.60;99.90
28023;DHT22;67403;50.104;8.758;2023-03-04T06:25:45;1.60;99.90
28023;DHT22;67403;50.104;8.758;2023-03-04T06:28:31;1.60;99.90
28023;DHT22;67403;50.104;8.758;2023-03-04T06:30:58;1.70;99.90
28023;DHT22;67403;50.104;8.758;2023-03-04T06:33:25;1.70;99.90
28023;DHT22;67403;50.104;8.758;2023-03-04T06:35:54;1.80;99.90
28023;DHT22;67403;50.104;8.758;2023-03-04T06:38:21;1.80;99.90
28023;DHT22;67403;50.104;8.758;2023-03-04T06:40:49;1.90;99.90
28023;DHT22;67403;50.104;8.758;2023-03-04T06:43:16;1.90;99.90
28023;DHT22;67403;50.104;8.758;2023-03-04T06:45:43;2.00;99.90
28023;DHT22;67403;50.104;8.758;2023-03-04T06:48:10;2.10;99.90
28023;DHT22;67403;50.104;8.758;2023-03-04T06:50:38;2.00;99.90
28023;DHT22;67403;50.104;8.758;2023-03-04T06:53:05;2.10;99.90
28023;DHT22;67403;50.104;8.758;2023-03-04T06:55:38;2.10;99.90
28023;DHT22;67403;50.104;8.758;2023-03-04T06:58:06;2.10;99.90
28023;DHT22;67403;50.104;8.758;2023-03-04T07:00:33;2.10;99.90
28023;DHT22;67403;50.104;8.758;2023-03-04T07:03:00;2.20;99.90
28023;DHT22;67403;50.104;8.758;2023-03-04T07:05:27;2.20;99.90
28023;DHT22;67403;50.104;8.758;2023-03-04T07:07:54;2.30;99.90
28023;DHT22;67403;50.104;8.758;2023-03-04T07:10:21;2.30;99.90
28023;DHT22;67403;50.104;8.758;2023-03-04T07:12:48;2.30;99.90
28023;DHT22;67403;50.104;8.758;2023-03-04T07:15:16;2.50;99.90
28023;DHT22;67403;50.104;8.758;2023-03-04T07:17:43;2.50;99.90
28023;DHT22;67403;50.104;8.758;2023-03-04T07:20:10;2.60;99.90
28023;DHT22;67403;50.104;8.758;2023-03-04T07:22:37;2.60;99.90
28023;DHT22;67403;50.104;8.758;2023-03-04T07:25:05;2.70;99.90
28023;DHT22;67403;50.104;8.758;2023-03-04T07:27:32;2.70;99.90
28023;DHT22;67403;50.104;8.758;2023-03-04T07:29:59;2.70;99.90
28023;DHT22;67403;50.104;8.758;2023-03-04T07:32:27;2.80;99.90
28023;DHT22;67403;50.104;8.758;2023-03-04T07:34:54;2.80;99.90
28023;DHT22;67403;50.104;8.758;2023-03-04T07:37:21;2.80;99.90
28023;DHT22;67403;50.104;8.758;2023-03-04T07:39:48;2.90;99.90
28023;DHT22;67403;50.104;8.758;2023-03-04T07:42:14;3.00;99.90
28023;DHT22;67403;50.104;8.758;2023-03-04T07:44:41;3.00;99.90
28023;DHT22;67403;50.104;8.758;2023-03-04T07:47:08;3.10;99.90
28023;DHT22;67403;50.104;8.758;2023-03-04T07:49:36;3.20;99.90
28023;DHT22;67403;50.104;8.758;2023-03-04T07:52:04;3.20;99.90
28023;DHT22;67403;50.104;8.758;2023-03-04T07:54:31;3.20;99.90
28023;DHT22;67403;50.104;8.758;2023-03-04T07:56:58;3.20;99.90
28023;DHT22;67403;50.104;8.758;2023-03-04T07:59:25;3.30;99.90
28023;DHT22;67403;50.104;8.758;2023-03-04T08:01:52;3.40;99.90
28023;DHT22;67403;50.104;8.758;2023-03-04T08:04:19;3.40;99.90
28023;DHT22;67403;50.104;8.758;2023-03-04T08:06:47;3.50;99.90
28023;DHT22;67403;50.104;8.758;2023-03-04T08:09:15;3.50;99.90
28023;DHT22;67403;50.104;8.758;2023-03-04T08:11:42;3.60;99.90
28023;DHT22;67403;50.104;8.758;2023-03-04T08:14:34;3.70;99.90
28023;DHT22;67403;50.104;8.758;2023-03-04T08:17:01;3.60;99.90
28023;DHT22;67403;50.104;8.758;2023-03-04T08:19:28;3.70;99.90
28023;DHT22;67403;50.104;8.758;2023-03-04T08:21:56;3.80;99.90
28023;DHT22;67403;50.104;8.758;2023-03-04T08:24:23;3.80;99.90
28023;DHT22;67403;50.104;8.758;2023-03-04T08:26:50;3.80;99.90
28023;DHT22;67403;50.104;8.758;2023-03-04T08:29:19;3.90;99.90
28023;DHT22;67403;50.104;8.758;2023-03-04T08:31:47;3.90;99.90
28023;DHT22;67403;50.104;8.758;2023-03-04T08:34:15;3.90;99.90
28023;DHT22;67403;50.104;8.758;2023-03-04T08:36:42;3.80;99.90
28023;DHT22;67403;50.104;8.758;2023-03-04T08:39:13;3.90;99.90
28023;DHT22;67403;50.104;8.758;2023-03-04T08:41:40;4.00;99.90
28023;DHT22;67403;50.104;8.758;2023-03-04T08:44:07;4.10;99.90
28023;DHT22;67403;50.104;8.758;2023-03-04T08:46:35;4.10;99.90
28023;DHT22;67403;50.104;8.758;2023-03-04T08:49:02;4.30;99.90
28023;DHT22;67403;50.104;8.758;2023-03-04T08:51:30;4.30;99.90
28023;DHT22;67403;50.104;8.758;2023-03-04T08:53:57;4.30;99.90
28023;DHT22;67403;50.104;8.758;2023-03-04T08:56:25;4.40;99.90
28023;DHT22;67403;50.104;8.758;2023-03-04T08:58:52;4.30;99.90
28023;DHT22;67403;50.104;8.758;2023-03-04T09:01:19;4.20;99.90
28023;DHT22;67403;50.104;8.758;2023-03-04T09:03:46;4.20;99.90
28023;DHT22;67403;50.104;8.758;2023-03-04T09:06:14;4.30;99.90
28023;DHT22;67403;50.104;8.758;2023-03-04T09:08:42;4.30;99.90
28023;DHT22;67403;50.104;8.758;2023-03-04T09:11:09;4.40;99.90
28023;DHT22;67403;50.104;8.758;2023-03-04T09:13:37;4.40;99.90
28023;DHT22;67403;50.104;8.758;2023-03-04T09:16:08;4.50;99.90
28023;DHT22;67403;50.104;8.758;2023-03-04T09:18:35;4.60;99.90
28023;DHT22;67403;50.104;8.758;2023-03-04T09:21:04;4.70;99.90
28023;DHT22;67403;50.104;8.758;2023-03-04T09:23:31;4.70;99.90
28023;DHT22;67403;50.104;8.758;2023-03-04T09:25:58;4.70;99.90
28023;DHT22;67403;50.104;8.758;2023-03-04T09:28:25;4.90;99.90
28023;DHT22;67403;50.104;8.758;2023-03-04T09:30:53;4.80;99.90
28023;DHT22;67403;50.104;8.758;2023-03-04T09:33:20;4.80;99.90
28023;DHT22;67403;50.104;8.758;2023-03-04T09:35:47;4.80;99.90
28023;DHT22;67403;50.104;8.758;2023-03-04T09:38:14;4.90;99.90
28023;DHT22;67403;50.104;8.758;2023-03-04T09:40:44;5.00;99.90
28023;DHT22;67403;50.104;8.758;2023-03-04T09:43:14;5.00;99.90
28023;DHT22;67403;50.104;8.758;2023-03-04T09:45:47;5.00;99.90
28023;DHT22;67403;50.104;8.758;2023-03-04T09:48:20;5.10;99.90
28023;DHT22;67403;50.104;8.758;2023-03-04T09:50:57;5.10;99.90
28023;DHT22;67403;50.104;8.758;2023-03-04T09:53:32;5.10;99.90
28023;DHT22;67403;50.104;8.758;2023-03-04T09:56:02;5.00;99.90
28023;DHT22;67403;50.104;8.758;2023-03-04T09:58:41;5.00;99.90
28023;DHT22;67403;50.104;8.758;2023-03-04T10:01:15;5.10;99.90
28023;DHT22;67403;50.104;8.758;2023-03-04T10:03:46;5.20;99.90
28023;DHT22;67403;50.104;8.758;2023-03-04T10:06:16;5.30;99.90
28023;DHT22;67403;50.104;8.758;2023-03-04T10:08:49;5.30;99.90
28023;DHT22;67403;50.104;8.758;2023-03-04T10:11:22;5.40;99.90
28023;DHT22;67403;50.104;8.758;2023-03-04T10:13:57;5.50;99.90
28023;DHT22;67403;50.104;8.758;2023-03-04T10:16:32;5.50;99.90
28023;DHT22;67403;50.104;8.758;2023-03-04T10:19:18;5.50;99.90
28023;DHT22;67403;50.104;8.758;2023-03-04T10:21:49;5.50;99.90
28023;DHT22;67403;50.104;8.758;2023-03-04T10:24:17;5.60;99.90
28023;DHT22;67403;50.104;8.758;2023-03-04T10:26:51;5.60;99.90
28023;DHT22;67403;50.104;8.758;2023-03-04T10:29:21;5.40;99.90
28023;DHT22;67403;50.104;8.758;2023-03-04T10:31:50;5.30;99.90
28023;DHT22;67403;50.104;8.758;2023-03-04T10:34:22;5.30;99.90
28023;DHT22;67403;50.104;8.758;2023-03-04T10:36:54;5.40;99.90
28023;DHT22;67403;50.104;8.758;2023-03-04T10:39:26;5.40;99.90
28023;DHT22;67403;50.104;8.758;2023-03-04T10:41:56;5.50;99.90
28023;DHT22;67403;50.104;8.758;2023-03-04T10:44:24;5.70;99.90
28023;DHT22;67403;50.104;8.758;2023-03-04T10:46:53;5.70;99.90
28023;DHT22;67403;50.104;8.758;2023-03-04T10:49:22;5.80;99.90
28023;DHT22;67403;50.104;8.758;2023-03-04T10:51:52;6.00;99.90
28023;DHT22;67403;50.104;8.758;2023-03-04T10:54:25;6.10;99.90
28023;DHT22;67403;50.104;8.758;2023-03-04T10:56:56;6.10;99.90
28023;DHT22;67403;50.104;8.758;2023-03-04T10:59:32;6.00;99.90
28023;DHT22;67403;50.104;8.758;2023-03-04T11:02:05;6.00;99.90
28023;DHT22;67403;50.104;8.758;2023-03-04T11:04:37;6.00;99.90
28023;DHT22;67403;50.104;8.758;2023-03-04T11:07:07;6.00;99.90
28023;DHT22;67403;50.104;8.758;2023-03-04T11:09:34;6.10;99.90
28023;DHT22;67403;50.104;8.758;2023-03-04T11:12:02;6.10;99.90
28023;DHT22;67403;50.104;8.758;2023-03-04T11:14:34;6.00;99.90
28023;DHT22;67403;50.104;8.758;2023-03-04T11:17:20;6.10;99.90
28023;DHT22;67403;50.104;8.758;2023-03-04T11:19:53;6.10;99.90
28023;DHT22;67403;50.104;8.758;2023-03-04T11:22:22;6.10;99.90
28023;DHT22;67403;50.104;8.758;2023-03-04T11:24:55;6.10;99.90
28023;DHT22;67403;50.104;8.758;2023-03-04T11:27:30;6.00;99.90
28023;DHT22;67403;50.104;8.758;2023-03-04T11:30:09;5.90;99.90
28023;DHT22;67403;50.104;8.758;2023-03-04T11:32:40;6.00;99.90
28023;DHT22;67403;50.104;8.758;2023-03-04T11:35:13;6.00;99.90
28023;DHT22;67403;50.104;8.758;2023-03-04T11:37:46;6.00;99.90
28023;DHT22;67403;50.104;8.758;2023-03-04T11:40:18;6.20;99.90
28023;DHT22;67403;50.104;8.758;2023-03-04T11:42:53;6.30;99.90
28023;DHT22;67403;50.104;8.758;2023-03-04T11:45:27;6.20;99.90
28023;DHT22;67403;50.104;8.758;2023-03-04T11:48:02;6.30;99.90
28023;DHT22;67403;50.104;8.758;2023-03-04T11:50:40;6.30;99.90
28023;DHT22;67403;50.104;8.758;2023-03-04T11:53:35;6.40;99.90
28023;DHT22;67403;50.104;8.758;2023-03-04T11:56:10;6.50;99.90
28023;DHT22;67403;50.104;8.758;2023-03-04T11:59:03;6.50;99.90
28023;DHT22;67403;50.104;8.758;2023-03-04T12:01:38;6.40;99.90
28023;DHT22;67403;50.104;8.758;2023-03-04T12:04:33;6.40;99.90
28023;DHT22;67403;50.104;8.758;2023-03-04T12:07:19;6.30;99.90
28023;DHT22;67403;50.104;8.758;2023-03-04T12:09:56;6.30;99.90
28023;DHT22;67403;50.104;8.758;2023-03-04T12:12:43;6.40;99.90
28023;DHT22;67403;50.104;8.758;2023-03-04T12:15:18;6.50;99.90
28023;DHT22;67403;50.104;8.758;2023-03-04T12:17:58;6.50;99.90
28023;DHT22;67403;50.104;8.758;2023-03-04T12:20:36;6.50;99.90
28023;DHT22;67403;50.104;8.758;2023-03-04T12:23:18;6.70;99.90
28023;DHT22;67403;50.104;8.758;2023-03-04T12:25:54;6.70;99.90
28023;DHT22;67403;50.104;8.758;2023-03-04T12:28:36;6.90;99.90
28023;DHT22;67403;50.104;8.758;2023-03-04T12:34:29;6.90;99.90
28023;DHT22;67403;50.104;8.758;2023-03-04T12:37:10;6.90;99.90
28023;DHT22;67403;50.104;8.758;2023-03-04T12:39:50;6.80;99.90
28023;DHT22;67403;50.104;8.758;2023-03-04T12:42:27;6.80;99.90
28023;DHT22;67403;50.104;8.758;2023-03-04T12:45:05;7.10;99.90
28023;DHT22;67403;50.104;8.758;2023-03-04T12:47:47;7.40;99.90
28023;DHT22;67403;50.104;8.758;2023-03-04T12:50:26;7.50;99.90
28023;DHT22;67403;50.104;8.758;2023-03-04T12:52:59;7.60;99.90
28023;DHT22;67403;50.104;8.758;2023-03-04T12:55:35;7.70;99.90
28023;DHT22;67403;50.104;8.758;2023-03-04T12:58:03;7.70;99.90
28023;DHT22;67403;50.104;8.758;2023-03-04T13:00:46;7.70;99.90
28023;DHT22;67403;50.104;8.758;2023-03-04T13:03:20;7.80;99.90
28023;DHT22;67403;50.104;8.758;2023-03-04T13:05:59;8.00;99.90
28023;DHT22;67403;50.104;8.758;2023-03-04T13:08:33;8.00;99.90
28023;DHT22;67403;50.104;8.758;2023-03-04T13:11:43;8.10;99.90
28023;DHT22;67403;50.104;8.758;2023-03-04T13:14:24;8.10;99.90
28023;DHT22;67403;50.104;8.758;2023-03-04T13:16:52;8.10;99.90
28023;DHT22;67403;50.104;8.758;2023-03-04T13:19:42;8.10;99.90
28023;DHT22;67403;50.104;8.758;2023-03-04T13:22:34;7.90;99.90
28023;DHT22;67403;50.104;8.758;2023-03-04T13:25:35;8.00;99.90
28023;DHT22;67403;50.104;8.758;2023-03-04T13:28:22;8.00;99.90
28023;DHT22;67403;50.104;8.758;2023-03-04T13:31:15;7.80;99.90
28023;DHT22;67403;50.104;8.758;2023-03-04T13:33:58;7.80;99.90
28023;DHT22;67403;50.104;8.758;2023-03-04T13:39:30;8.00;99.90
28023;DHT22;67403;50.104;8.758;2023-03-04T13:41:57;8.00;99.90
28023;DHT22;67403;50.104;8.758;2023-03-04T13:44:57;8.10;99.90
28023;DHT22;67403;50.104;8.758;2023-03-04T13:47:38;8.00;99.90
28023;DHT22;67403;50.104;8.758;2023-03-04T13:50:29;8.00;99.90
28023;DHT22;67403;50.104;8.758;2023-03-04T13:55:42;7.90;99.90
28023;DHT22;67403;50.104;8.758;2023-03-04T13:58:17;7.90;99.90
28023;DHT22;67403;50.104;8.758;2023-03-04T14:00:52;7.80;99.90
28023;DHT22;67403;50.104;8.758;2023-03-04T14:03:22;7.80;99.90
28023;DHT22;67403;50.104;8.758;2023-03-04T14:06:17;7.80;99.90
28023;DHT22;67403;50.104;8.758;2023-03-04T14:08:45;7.60;99.90
28023;DHT22;67403;50.104;8.758;2023-03-04T14:11:13;7.60;99.90
28023;DHT22;67403;50.104;8.758;2023-03-04T14:13:41;7.50;99.90
28023;DHT22;67403;50.104;8.758;2023-03-04T14:16:10;7.50;99.90
28023;DHT22;67403;50.104;8.758;2023-03-04T14:18:37;7.60;99.90
28023;DHT22;67403;50.104;8.758;2023-03-04T14:21:04;7.50;99.90
28023;DHT22;67403;50.104;8.758;2023-03-04T14:23:33;7.50;99.90
28023;DHT22;67403;50.104;8.758;2023-03-04T14:26:06;7.50;99.90
28023;DHT22;67403;50.104;8.758;2023-03-04T14:28:42;7.40;99.90
28023;DHT22;67403;50.104;8.758;2023-03-04T14:31:17;7.40;99.90
28023;DHT22;67403;50.104;8.758;2023-03-04T14:33:48;7.50;99.90
28023;DHT22;67403;50.104;8.758;2023-03-04T14:36:18;7.50;99.90
28023;DHT22;67403;50.104;8.758;2023-03-04T14:38:48;7.40;99.90
28023;DHT22;67403;50.104;8.758;2023-03-04T14:41:18;7.40;99.90
28023;DHT22;67403;50.104;8.758;2023-03-04T14:43:52;7.50;99.90
28023;DHT22;67403;50.104;8.758;2023-03-04T14:46:22;7.40;99.90
28023;DHT22;67403;50.104;8.758;2023-03-04T14:48:52;7.30;99.90
28023;DHT22;67403;50.104;8.758;2023-03-04T14:51:31;7.20;99.90
28023;DHT22;67403;50.104;8.758;2023-03-04T14:53:58;7.20;99.90
28023;DHT22;67403;50.104;8.758;2023-03-04T14:56:26;7.20;99.90
28023;DHT22;67403;50.104;8.758;2023-03-04T14:58:55;7.20;99.90
28023;DHT22;67403;50.104;8.758;2023-03-04T15:01:30;7.20;99.90
28023;DHT22;67403;50.104;8.758;2023-03-04T15:03:59;7.00;99.90
28023;DHT22;67403;50.104;8.758;2023-03-04T15:06:29;7.10;99.90
28023;DHT22;67403;50.104;8.758;2023-03-04T15:08:58;7.10;99.90
28023;DHT22;67403;50.104;8.758;2023-03-04T15:11:28;7.10;99.90
28023;DHT22;67403;50.104;8.758;2023-03-04T15:13:57;7.10;99.90
28023;DHT22;67403;50.104;8.758;2023-03-04T15:16:27;7.10;99.90
28023;DHT22;67403;50.104;8.758;2023-03-04T15:18:57;7.00;99.90
28023;DHT22;67403;50.104;8.758;2023-03-04T15:21:31;7.10;99.90
28023;DHT22;67403;50.104;8.758;2023-03-04T15:23:58;7.00;99.90
28023;DHT22;67403;50.104;8.758;2023-03-04T15:26:25;7.00;99.90
28023;DHT22;67403;50.104;8.758;2023-03-04T15:28:52;7.00;99.90
28023;DHT22;67403;50.104;8.758;2023-03-04T15:31:22;7.10;99.90
28023;DHT22;67403;50.104;8.758;2023-03-04T15:33:51;7.00;99.90
28023;DHT22;67403;50.104;8.758;2023-03-04T15:36:21;7.10;99.90
28023;DHT22;67403;50.104;8.758;2023-03-04T15:38:50;7.10;99.90
28023;DHT22;67403;50.104;8.758;2023-03-04T15:41:21;7.10;99.90
28023;DHT22;67403;50.104;8.758;2023-03-04T15:43:50;7.00;99.90
28023;DHT22;67403;50.104;8.758;2023-03-04T15:46:18;7.10;99.90
28023;DHT22;67403;50.104;8.758;2023-03-04T15:48:45;7.10;99.90
28023;DHT22;67403;50.104;8.758;2023-03-04T15:51:15;7.10;99.90
28023;DHT22;67403;50.104;8.758;2023-03-04T15:53:45;7.10;99.90
28023;DHT22;67403;50.104;8.758;2023-03-04T15:56:14;7.20;99.90
28023;DHT22;67403;50.104;8.758;2023-03-04T15:58:42;7.20;99.90
28023;DHT22;67403;50.104;8.758;2023-03-04T16:01:14;7.10;99.90
28023;DHT22;67403;50.104;8.758;2023-03-04T16:03:42;7.10;99.90
28023;DHT22;67403;50.104;8.758;2023-03-04T16:06:09;7.20;99.90
28023;DHT22;67403;50.104;8.758;2023-03-04T16:08:38;7.10;99.90
28023;DHT22;67403;50.104;8.758;2023-03-04T16:11:09;7.10;99.90
28023;DHT22;67403;50.104;8.758;2023-03-04T16:13:39;7.10;99.90
28023;DHT22;67403;50.104;8.758;2023-03-04T16:16:09;7.10;99.90